This is the latest recevied weather packets stored in our database for station/object KG4K-13. If no packets are shown the sender has not sent any weather packets the latest 10 day(s).
| Time | Temp. | Humidity | Pressure | Rain* | Wind** | Luminosity | Snow |
|---|---|---|---|---|---|---|---|
| 1777743916 | 15.56° C | 50% | 1014 hPa | 0 mm | - | 888 W/m² | - |
| 1777736718 | 12.78° C | 58% | 1014.8 hPa | 0 mm | - | 426 W/m² | - |
| 1777736118 | 12.78° C | 58% | 1015 hPa | 0 mm | - | 349 W/m² | - |
| 1777733716 | 11.67° C | 62% | 1014.7 hPa | 0 mm | - | 462 W/m² | - |
| 1777733116 | 12.22° C | 63% | 1014.7 hPa | 0 mm | - | 362 W/m² | - |
| 1777732516 | 11.67° C | 63% | 1014.6 hPa | 0 mm | - | 442 W/m² | - |
| 1777730117 | 11.11° C | 66% | 1014.4 hPa | 0 mm | - | 268 W/m² | - |
| 1777721716 | 10.56° C | 67% | 1014.7 hPa | 0 mm | - | 84 W/m² | - |
| 1777718140 | 10.56° C | 66% | 1014 hPa | 0 mm | - | 14 W/m² | - |
| 1777717520 | 11.11° C | 65% | 1013.9 hPa | 0 mm | - | 7 W/m² | - |
| 1777714541 | 11.11° C | 70% | 1013.1 hPa | 0 mm | - | 0 W/m² | - |
| 1777709722 | 10° C | 91% | 1012.8 hPa | 0 mm | - | 0 W/m² | - |
| 1777708522 | 10° C | 93% | 1013 hPa | 0 mm | - | 0 W/m² | - |
| 1777703123 | 11.67° C | 86% | 1012.8 hPa | 0.25 mm | - | 0 W/m² | - |
| 1777694738 | 13.89° C | 76% | 1012.7 hPa | 0 mm | - | 0 W/m² | - |
| 1777693518 | 13.89° C | 77% | 1012.6 hPa | 0 mm | - | 0 W/m² | - |
| 1777688716 | 14.44° C | 77% | 1012.7 hPa | 0 mm | - | 0 W/m² | - |
| 1777685117 | 14.44° C | 67% | 1012.2 hPa | 0 mm | - | 0 W/m² | - |
| 1777678516 | 15.56° C | 65% | 1011.6 hPa | 0 mm | - | 18 W/m² | - |
| 1777676716 | 17.78° C | 56% | 1011.5 hPa | 0 mm | - | 52 W/m² | - |
| 1777673158 | 18.89° C | 52% | 1011.8 hPa | 0 mm | - | 284 W/m² | - |
| 1777670118 | 16.67° C | 56% | 1011.8 hPa | 0 mm | - | 123 W/m² | - |
| 1777668316 | 16.67° C | 57% | 1012.2 hPa | 0 mm | - | 97 W/m² | - |
| 1777664717 | 19.44° C | 47% | 1013 hPa | 0 mm | - | 749 W/m² | - |
| 1777661738 | 19.44° C | 46% | 1013.7 hPa | 0 mm | - | 887 W/m² | - |
* Rain latest hour (hover to see other rain measurements)
** Current wind speed in m/s (hover to see current wind gust speed)